createdAt,value
2023-01-07T00:00:57.822Z,1003.43
2023-01-07T00:01:58.849Z,1003.39
2023-01-07T00:02:57.496Z,1003.38
2023-01-07T00:03:57.545Z,1003.38
2023-01-07T00:04:57.248Z,1003.39
2023-01-07T00:05:57.411Z,1003.38
2023-01-07T00:06:57.307Z,1003.42
2023-01-07T00:07:57.167Z,1003.42
2023-01-07T00:08:57.263Z,1003.40
2023-01-07T00:09:57.229Z,1003.33
2023-01-07T00:10:57.196Z,1003.37
2023-01-07T00:11:57.316Z,1003.34
2023-01-07T00:12:57.227Z,1003.33
2023-01-07T00:13:57.306Z,1003.34
2023-01-07T00:14:57.207Z,1003.29
2023-01-07T00:15:57.431Z,1003.33
2023-01-07T00:16:57.272Z,1003.32
2023-01-07T00:17:57.079Z,1003.32
2023-01-07T00:18:57.180Z,1003.33
2023-01-07T00:19:57.504Z,1003.30
2023-01-07T00:20:57.160Z,1003.27
2023-01-07T00:21:58.430Z,1003.32
2023-01-07T00:22:57.026Z,1003.30
2023-01-07T00:23:58.724Z,1003.28
2023-01-07T00:24:57.188Z,1003.26
2023-01-07T00:25:57.135Z,1003.24
2023-01-07T00:26:57.184Z,1003.24
2023-01-07T00:27:58.003Z,1003.25
2023-01-07T00:28:59.095Z,1003.26
2023-01-07T00:29:57.228Z,1003.23
2023-01-07T00:30:57.143Z,1003.17
2023-01-07T00:31:57.080Z,1003.16
2023-01-07T00:32:59.695Z,1003.21
2023-01-07T00:33:58.530Z,1003.16
2023-01-07T00:34:58.496Z,1003.15
2023-01-07T00:35:57.001Z,1003.16
2023-01-07T00:36:57.719Z,1003.17
2023-01-07T00:37:57.205Z,1003.12
2023-01-07T00:38:58.808Z,1003.13
2023-01-07T00:39:58.415Z,1003.10
2023-01-07T00:40:57.546Z,1003.10
2023-01-07T00:41:57.069Z,1003.08
2023-01-07T00:42:56.888Z,1003.08
2023-01-07T00:43:57.008Z,1003.09
2023-01-07T00:44:57.087Z,1003.09
2023-01-07T00:45:57.397Z,1003.09
2023-01-07T00:46:57.151Z,1003.04
2023-01-07T00:47:57.489Z,1003.10
2023-01-07T00:48:56.811Z,1003.03
2023-01-07T00:49:56.999Z,1003.05
2023-01-07T00:50:57.382Z,1003.05
2023-01-07T00:51:57.216Z,1003.02
2023-01-07T00:52:56.764Z,1003.00
2023-01-07T00:53:57.406Z,1002.95
2023-01-07T00:54:57.875Z,1002.96
2023-01-07T00:55:57.849Z,1002.95
2023-01-07T00:56:56.807Z,1002.98
2023-01-07T00:57:57.861Z,1002.95
2023-01-07T00:58:57.898Z,1003.03
2023-01-07T00:59:56.914Z,1002.99
2023-01-07T01:00:57.776Z,1002.96
2023-01-07T01:01:57.672Z,1002.99
2023-01-07T01:02:57.159Z,1002.94
2023-01-07T01:03:56.972Z,1002.93
2023-01-07T01:04:57.397Z,1002.90
2023-01-07T01:05:56.954Z,1002.88
2023-01-07T01:06:56.774Z,1002.86
2023-01-07T01:07:56.807Z,1002.89
2023-01-07T01:08:56.672Z,1002.92
2023-01-07T01:09:56.671Z,1002.86
2023-01-07T01:10:56.681Z,1002.88
2023-01-07T01:11:57.696Z,1002.84
2023-01-07T01:12:56.690Z,1002.84
2023-01-07T01:13:56.708Z,1002.82
2023-01-07T01:14:56.516Z,1002.82
2023-01-07T01:15:56.714Z,1002.85
2023-01-07T01:16:56.701Z,1002.81
2023-01-07T01:17:56.845Z,1002.83
2023-01-07T01:18:57.043Z,1002.83
2023-01-07T01:19:56.521Z,1002.84
2023-01-07T01:20:56.704Z,1002.90
2023-01-07T01:21:56.502Z,1002.89
2023-01-07T01:22:56.961Z,1002.90
2023-01-07T01:23:56.756Z,1002.90
2023-01-07T01:24:56.924Z,1002.87
2023-01-07T01:25:56.952Z,1002.83
2023-01-07T01:26:56.943Z,1002.82
2023-01-07T01:27:56.775Z,1002.81
2023-01-07T01:28:57.430Z,1002.82
2023-01-07T01:29:56.626Z,1002.78
2023-01-07T01:30:56.617Z,1002.74
2023-01-07T01:32:00.132Z,1002.75
2023-01-07T01:32:56.419Z,1002.71
2023-01-07T01:33:56.721Z,1002.76
2023-01-07T01:34:56.530Z,1002.72
2023-01-07T01:35:56.917Z,1002.72
2023-01-07T01:36:57.497Z,1002.75
2023-01-07T01:37:58.607Z,1002.74
2023-01-07T01:38:57.071Z,1002.80
2023-01-07T01:39:56.702Z,1002.85
2023-01-07T01:40:57.109Z,1002.87
2023-01-07T01:41:56.363Z,1002.85
2023-01-07T01:42:56.263Z,1002.84
2023-01-07T01:43:57.045Z,1002.87
2023-01-07T01:44:56.359Z,1002.83
2023-01-07T01:45:57.081Z,1002.88
2023-01-07T01:46:56.576Z,1002.89
2023-01-07T01:47:56.200Z,1002.83
2023-01-07T01:48:56.283Z,1002.80
2023-01-07T01:49:56.306Z,1002.83
2023-01-07T01:50:56.225Z,1002.78
2023-01-07T01:51:57.253Z,1002.77
2023-01-07T01:52:56.923Z,1002.77
2023-01-07T01:53:56.324Z,1002.74
2023-01-07T01:54:56.212Z,1002.71
2023-01-07T01:55:56.710Z,1002.72
2023-01-07T01:56:56.223Z,1002.67
2023-01-07T01:57:56.307Z,1002.67
2023-01-07T01:58:56.126Z,1002.68
2023-01-07T01:59:56.809Z,1002.69
2023-01-07T02:00:56.293Z,1002.70
2023-01-07T02:01:57.351Z,1002.69
2023-01-07T02:02:56.316Z,1002.69
2023-01-07T02:03:56.171Z,1002.71
2023-01-07T02:04:56.205Z,1002.67
2023-01-07T02:05:57.415Z,1002.67
2023-01-07T02:06:55.981Z,1002.67
2023-01-07T02:07:56.221Z,1002.64
2023-01-07T02:08:56.215Z,1002.65
2023-01-07T02:09:55.989Z,1002.62
2023-01-07T02:10:56.406Z,1002.62
2023-01-07T02:11:56.148Z,1002.61
2023-01-07T02:12:55.921Z,1002.62
2023-01-07T02:13:56.520Z,1002.60
2023-01-07T02:14:56.358Z,1002.62
2023-01-07T02:15:56.066Z,1002.59
2023-01-07T02:16:56.211Z,1002.56
2023-01-07T02:17:55.905Z,1002.54
2023-01-07T02:18:55.829Z,1002.55
2023-01-07T02:19:55.958Z,1002.58
2023-01-07T02:20:55.956Z,1002.54
2023-01-07T02:21:56.021Z,1002.53
2023-01-07T02:22:56.140Z,1002.55
2023-01-07T02:23:55.930Z,1002.58
2023-01-07T02:24:55.928Z,1002.53
2023-01-07T02:25:56.378Z,1002.53
2023-01-07T02:26:56.465Z,1002.52
2023-01-07T02:27:56.154Z,1002.52
2023-01-07T02:28:55.911Z,1002.55
2023-01-07T02:29:56.067Z,1002.49
2023-01-07T02:30:55.814Z,1002.48
2023-01-07T02:31:55.785Z,1002.42
2023-01-07T02:32:55.858Z,1002.35
2023-01-07T02:33:55.703Z,1002.29
2023-01-07T02:34:55.699Z,1002.25
2023-01-07T02:35:55.776Z,1002.20
2023-01-07T02:36:55.731Z,1002.21
2023-01-07T02:37:55.817Z,1002.24
2023-01-07T02:38:55.645Z,1002.23
2023-01-07T02:39:55.880Z,1002.22
2023-01-07T02:40:55.873Z,1002.18
2023-01-07T02:41:57.669Z,1002.19
2023-01-07T02:42:55.610Z,1002.20
2023-01-07T02:43:55.757Z,1002.17
2023-01-07T02:44:55.763Z,1002.21
2023-01-07T02:45:56.515Z,1002.21
2023-01-07T02:46:56.051Z,1002.17
2023-01-07T02:47:55.935Z,1002.23
2023-01-07T02:48:55.618Z,1002.16
2023-01-07T02:49:56.052Z,1002.21
2023-01-07T02:50:55.705Z,1002.26
2023-01-07T02:51:55.619Z,1002.23
2023-01-07T02:52:55.730Z,1002.28
2023-01-07T02:53:55.809Z,1002.24
2023-01-07T02:54:56.499Z,1002.24
2023-01-07T02:55:55.423Z,1002.22
2023-01-07T02:56:56.927Z,1002.24
2023-01-07T02:57:55.504Z,1002.23
2023-01-07T02:58:55.756Z,1002.18
2023-01-07T02:59:55.697Z,1002.17
2023-01-07T03:00:56.121Z,1002.17
2023-01-07T03:01:55.728Z,1002.14
2023-01-07T03:02:55.924Z,1002.14
2023-01-07T03:03:55.494Z,1002.17
2023-01-07T03:04:55.750Z,1002.24
2023-01-07T03:05:55.746Z,1002.20
2023-01-07T03:06:55.370Z,1002.20
2023-01-07T03:07:56.338Z,1002.19
2023-01-07T03:08:56.414Z,1002.20
2023-01-07T03:09:56.159Z,1002.22
2023-01-07T03:10:55.566Z,1002.20
2023-01-07T03:11:55.540Z,1002.22
2023-01-07T03:12:55.416Z,1002.22
2023-01-07T03:13:55.186Z,1002.21
2023-01-07T03:14:58.285Z,1002.17
2023-01-07T03:15:55.617Z,1002.18
2023-01-07T03:16:57.275Z,1002.14
2023-01-07T03:17:55.326Z,1002.11
2023-01-07T03:18:55.382Z,1002.12
2023-01-07T03:19:55.247Z,1002.09
2023-01-07T03:20:55.636Z,1002.09
2023-01-07T03:21:55.239Z,1002.09
2023-01-07T03:22:55.177Z,1002.09
2023-01-07T03:23:56.038Z,1002.08
2023-01-07T03:24:55.928Z,1002.10
2023-01-07T03:25:55.217Z,1002.07
2023-01-07T03:26:57.201Z,1002.05
2023-01-07T03:27:55.822Z,1002.07
2023-01-07T03:28:55.183Z,1002.10
2023-01-07T03:29:55.085Z,1002.05
2023-01-07T03:30:55.420Z,1002.08
2023-01-07T03:31:57.351Z,1002.09
2023-01-07T03:32:55.770Z,1002.09
2023-01-07T03:33:55.202Z,1002.08
2023-01-07T03:34:55.659Z,1002.09
2023-01-07T03:35:56.395Z,1002.12
2023-01-07T03:36:55.091Z,1002.09
2023-01-07T03:37:55.237Z,1002.13
2023-01-07T03:38:55.195Z,1002.10
2023-01-07T03:39:55.010Z,1002.12
2023-01-07T03:40:56.855Z,1002.09
2023-01-07T03:41:55.002Z,1002.09
2023-01-07T03:42:54.980Z,1002.12
2023-01-07T03:43:54.969Z,1002.07
2023-01-07T03:44:55.222Z,1002.05
2023-01-07T03:45:54.884Z,1002.02
2023-01-07T03:46:55.104Z,1002.04
2023-01-07T03:47:55.666Z,1002.03
2023-01-07T03:48:55.891Z,1002.00
2023-01-07T03:49:55.042Z,1001.98
2023-01-07T03:50:54.956Z,1002.00
2023-01-07T03:51:55.745Z,1001.97
2023-01-07T03:52:55.186Z,1001.94
2023-01-07T03:53:54.750Z,1001.95
2023-01-07T03:54:55.006Z,1001.95
2023-01-07T03:55:54.962Z,1001.95
2023-01-07T03:56:55.667Z,1001.92
2023-01-07T03:57:54.831Z,1001.95
2023-01-07T03:58:54.882Z,1001.92
2023-01-07T03:59:54.870Z,1001.93
2023-01-07T04:00:55.467Z,1001.88
2023-01-07T04:01:55.250Z,1001.91
2023-01-07T04:02:55.313Z,1001.89
2023-01-07T04:03:54.782Z,1001.87
2023-01-07T04:04:54.801Z,1001.91
2023-01-07T04:05:55.794Z,1001.94
2023-01-07T04:06:54.787Z,1001.92
2023-01-07T04:07:54.980Z,1001.95
2023-01-07T04:08:54.929Z,1001.90
2023-01-07T04:09:54.905Z,1001.92
2023-01-07T04:10:54.793Z,1001.92
2023-01-07T04:11:54.601Z,1001.93
2023-01-07T04:13:18.347Z,1001.84
2023-01-07T04:13:54.856Z,1001.85
2023-01-07T04:14:54.671Z,1001.76
2023-01-07T04:15:54.600Z,1001.82
2023-01-07T04:16:54.744Z,1001.76
2023-01-07T04:17:54.603Z,1001.73
2023-01-07T04:18:55.011Z,1001.69
2023-01-07T04:19:54.574Z,1001.70
2023-01-07T04:20:54.764Z,1001.63
2023-01-07T04:21:54.802Z,1001.59
2023-01-07T04:22:54.635Z,1001.60
2023-01-07T04:23:54.713Z,1001.61
2023-01-07T04:24:57.716Z,1001.62
2023-01-07T04:25:54.593Z,1001.61
2023-01-07T04:26:54.804Z,1001.60
2023-01-07T04:27:54.993Z,1001.61
2023-01-07T04:28:55.472Z,1001.58
2023-01-07T04:31:07.249Z,1001.59
2023-01-07T04:32:07.070Z,1001.58
2023-01-07T04:33:07.049Z,1001.58
2023-01-07T04:34:07.064Z,1001.57
2023-01-07T04:35:07.040Z,1001.57
2023-01-07T04:36:07.032Z,1001.60
2023-01-07T04:37:07.079Z,1001.56
2023-01-07T04:38:07.893Z,1001.48
2023-01-07T04:39:08.205Z,1001.53
2023-01-07T04:40:08.328Z,1001.48
2023-01-07T04:41:07.246Z,1001.50
2023-01-07T04:42:07.415Z,1001.49
2023-01-07T04:43:07.575Z,1001.48
2023-01-07T04:44:07.526Z,1001.43
2023-01-07T04:45:07.441Z,1001.51
2023-01-07T04:46:08.682Z,1001.48
2023-01-07T04:47:07.066Z,1001.51
2023-01-07T04:48:07.453Z,1001.52
2023-01-07T04:49:07.968Z,1001.49
2023-01-07T04:50:07.191Z,1001.52
2023-01-07T04:51:08.555Z,1001.51
2023-01-07T04:52:07.961Z,1001.54
2023-01-07T04:53:07.136Z,1001.50
2023-01-07T04:54:08.033Z,1001.48
2023-01-07T04:55:07.973Z,1001.50
2023-01-07T04:56:07.421Z,1001.42
2023-01-07T04:57:07.136Z,1001.47
2023-01-07T04:58:08.581Z,1001.41
2023-01-07T04:59:07.316Z,1001.47
2023-01-07T05:00:06.910Z,1001.47
2023-01-07T05:01:08.571Z,1001.42
2023-01-07T05:02:07.776Z,1001.41
2023-01-07T05:03:07.908Z,1001.40
2023-01-07T05:04:07.272Z,1001.44
2023-01-07T05:05:07.034Z,1001.40
2023-01-07T05:06:07.117Z,1001.41
2023-01-07T05:07:07.345Z,1001.40
2023-01-07T05:08:06.943Z,1001.38
2023-01-07T05:09:07.111Z,1001.41
2023-01-07T05:10:06.952Z,1001.41
2023-01-07T05:11:08.311Z,1001.33
2023-01-07T05:12:08.580Z,1001.36
2023-01-07T05:13:07.472Z,1001.39
2023-01-07T05:14:07.310Z,1001.38
2023-01-07T05:15:08.320Z,1001.30
2023-01-07T05:16:08.312Z,1001.30
2023-01-07T05:17:07.005Z,1001.30
2023-01-07T05:18:06.662Z,1001.31
2023-01-07T05:19:07.351Z,1001.20
2023-01-07T05:20:06.739Z,1001.23
2023-01-07T05:21:08.147Z,1001.21
2023-01-07T05:23:17.950Z,1001.18
2023-01-07T05:24:17.921Z,1001.14
2023-01-07T05:25:28.525Z,1001.12
2023-01-07T05:26:17.886Z,1001.14
2023-01-07T05:27:17.895Z,1001.11
2023-01-07T05:28:17.899Z,1001.09
2023-01-07T05:29:18.399Z,1001.08
2023-01-07T05:30:18.301Z,1001.07
2023-01-07T05:31:18.454Z,1001.07
2023-01-07T05:32:18.528Z,1001.04
2023-01-07T05:33:18.054Z,1001.03
2023-01-07T05:34:18.104Z,1001.07
2023-01-07T05:35:18.576Z,1001.05
2023-01-07T05:36:18.024Z,1001.13
2023-01-07T05:37:18.335Z,1001.06
2023-01-07T05:38:17.983Z,1001.03
2023-01-07T05:39:18.305Z,1001.01
2023-01-07T05:40:18.047Z,1001.00
2023-01-07T05:41:18.538Z,1000.99
2023-01-07T05:42:17.905Z,1000.97
2023-01-07T05:43:19.087Z,1000.96
2023-01-07T05:44:20.033Z,1000.96
2023-01-07T05:45:18.026Z,1000.92
2023-01-07T05:46:17.970Z,1000.84
2023-01-07T05:47:17.894Z,1000.86
2023-01-07T05:48:17.985Z,1000.88
2023-01-07T05:49:17.937Z,1000.86
2023-01-07T05:50:18.087Z,1000.85
2023-01-07T05:51:17.931Z,1000.91
2023-01-07T05:52:17.763Z,1000.89
2023-01-07T05:53:20.083Z,1000.91
2023-01-07T05:54:17.923Z,1000.88
2023-01-07T05:55:17.934Z,1000.90
2023-01-07T05:56:23.887Z,1000.91
2023-01-07T05:57:17.834Z,1000.90
2023-01-07T05:58:18.200Z,1000.89
2023-01-07T05:59:19.060Z,1000.86
2023-01-07T06:00:17.810Z,1000.86
2023-01-07T06:01:17.914Z,1000.85
2023-01-07T06:02:19.812Z,1000.79
2023-01-07T06:03:39.428Z,1000.78
2023-01-07T06:04:17.761Z,1000.75
2023-01-07T06:05:18.263Z,1000.79
2023-01-07T06:06:17.575Z,1000.80
2023-01-07T06:07:17.599Z,1000.78
2023-01-07T06:08:18.001Z,1000.74
2023-01-07T06:09:17.758Z,1000.79
2023-01-07T06:10:18.572Z,1000.77
2023-01-07T06:11:17.586Z,1000.78
2023-01-07T06:12:17.523Z,1000.73
2023-01-07T06:13:18.211Z,1000.69
2023-01-07T06:14:18.319Z,1000.70
2023-01-07T06:15:17.637Z,1000.71
2023-01-07T06:16:17.704Z,1000.69
2023-01-07T06:17:17.636Z,1000.65
2023-01-07T06:18:17.595Z,1000.65
2023-01-07T06:19:18.703Z,1000.66
2023-01-07T06:20:17.350Z,1000.65
2023-01-07T06:21:18.382Z,1000.60
2023-01-07T06:22:19.146Z,1000.63
2023-01-07T06:23:17.693Z,1000.57
2023-01-07T06:24:19.753Z,1000.53
2023-01-07T06:25:17.468Z,1000.57
2023-01-07T06:26:18.954Z,1000.58
2023-01-07T06:27:18.967Z,1000.54
2023-01-07T06:28:18.171Z,1000.55
2023-01-07T06:29:17.983Z,1000.59
2023-01-07T06:30:17.706Z,1000.60
2023-01-07T06:31:17.468Z,1000.57
2023-01-07T06:32:17.689Z,1000.53
2023-01-07T06:33:17.266Z,1000.52
2023-01-07T06:34:17.553Z,1000.52
2023-01-07T06:35:17.483Z,1000.50
2023-01-07T06:36:17.833Z,1000.52
2023-01-07T06:37:17.280Z,1000.46
2023-01-07T06:38:17.261Z,1000.46
2023-01-07T06:39:17.139Z,1000.46
2023-01-07T06:40:17.777Z,1000.43
2023-01-07T06:41:17.893Z,1000.39
2023-01-07T06:42:17.177Z,1000.38
2023-01-07T06:43:17.890Z,1000.44
2023-01-07T06:44:17.027Z,1000.39
2023-01-07T06:45:17.023Z,1000.42
2023-01-07T06:46:17.181Z,1000.40
2023-01-07T06:47:16.985Z,1000.33
2023-01-07T06:48:17.497Z,1000.33
2023-01-07T06:49:17.174Z,1000.30
2023-01-07T06:50:18.158Z,1000.34
2023-01-07T06:51:16.946Z,1000.27
2023-01-07T06:52:17.322Z,1000.27
2023-01-07T06:53:17.041Z,1000.26
2023-01-07T06:54:17.547Z,1000.27
2023-01-07T06:55:17.281Z,1000.24
2023-01-07T06:56:17.211Z,1000.21
2023-01-07T06:59:30.068Z,1000.25
2023-01-07T07:00:30.278Z,1000.24
2023-01-07T07:01:30.155Z,1000.21
2023-01-07T07:02:30.651Z,1000.15
2023-01-07T07:03:30.204Z,1000.18
2023-01-07T07:04:44.433Z,1000.18
2023-01-07T07:05:30.359Z,1000.20
2023-01-07T07:08:23.558Z,1000.19
2023-01-07T07:09:23.534Z,1000.24
2023-01-07T07:10:23.526Z,1000.21
2023-01-07T07:11:24.575Z,1000.21
2023-01-07T07:12:23.514Z,1000.20
2023-01-07T07:13:31.142Z,1000.16
2023-01-07T07:14:26.869Z,1000.12
2023-01-07T07:15:23.749Z,1000.11
2023-01-07T07:16:25.551Z,1000.15
2023-01-07T07:17:24.094Z,1000.08
2023-01-07T07:18:23.529Z,1000.13
2023-01-07T07:19:24.958Z,1000.13
2023-01-07T07:20:23.755Z,1000.12
2023-01-07T07:21:23.515Z,1000.06
2023-01-07T07:22:24.123Z,1000.07
2023-01-07T07:23:23.566Z,1000.03
2023-01-07T07:24:25.186Z,1000.00
2023-01-07T07:25:25.886Z,1000.02
2023-01-07T07:26:26.022Z,999.98
2023-01-07T07:27:23.576Z,999.98
2023-01-07T07:30:01.999Z,999.95
2023-01-07T07:31:01.826Z,1000.05
2023-01-07T07:32:01.667Z,1000.00
2023-01-07T07:33:01.725Z,999.93
2023-01-07T07:34:02.540Z,999.93
2023-01-07T07:35:02.142Z,999.94
2023-01-07T07:36:01.930Z,999.91
2023-01-07T07:37:09.391Z,999.91
2023-01-07T07:38:30.875Z,999.93
2023-01-07T07:39:01.596Z,999.99
2023-01-07T07:40:01.623Z,999.88
2023-01-07T07:41:03.478Z,999.92
2023-01-07T07:42:01.707Z,999.86
2023-01-07T07:43:11.356Z,999.84
2023-01-07T07:44:01.768Z,999.84
2023-01-07T07:45:01.721Z,999.83
2023-01-07T07:46:01.676Z,999.84
2023-01-07T07:47:01.611Z,999.75
2023-01-07T07:48:01.621Z,999.71
2023-01-07T07:49:02.321Z,999.73
2023-01-07T07:50:01.641Z,999.72
2023-01-07T07:51:02.101Z,999.68
2023-01-07T07:52:01.916Z,999.68
2023-01-07T07:53:02.201Z,999.69
2023-01-07T07:54:02.573Z,999.65
2023-01-07T07:55:19.924Z,999.62
2023-01-07T07:56:04.377Z,999.65
2023-01-07T07:57:02.795Z,999.64
2023-01-07T07:58:01.666Z,999.70
2023-01-07T07:59:01.777Z,999.62
2023-01-07T08:00:01.492Z,999.64
2023-01-07T08:01:02.486Z,999.60
2023-01-07T08:02:01.626Z,999.55
2023-01-07T08:03:01.586Z,999.62
2023-01-07T08:04:01.723Z,999.58
2023-01-07T08:05:02.081Z,999.60
2023-01-07T08:06:01.815Z,999.56
2023-01-07T08:07:01.646Z,999.52
2023-01-07T08:08:02.771Z,999.52
2023-01-07T08:09:01.505Z,999.51
2023-01-07T08:10:01.780Z,999.52
2023-01-07T08:11:01.622Z,999.54
2023-01-07T08:12:02.821Z,999.56
2023-01-07T08:14:59.123Z,999.48
2023-01-07T08:15:56.240Z,999.45
2023-01-07T08:16:56.248Z,999.42
2023-01-07T08:17:56.798Z,999.39
2023-01-07T08:18:56.277Z,999.41
2023-01-07T08:19:57.505Z,999.43
2023-01-07T08:22:05.478Z,999.41
2023-01-07T08:23:05.579Z,999.44
2023-01-07T08:24:08.152Z,999.42
2023-01-07T08:26:38.231Z,999.43
2023-01-07T08:29:01.937Z,999.35
2023-01-07T08:30:04.768Z,999.35
2023-01-07T08:31:04.137Z,999.34
2023-01-07T08:32:02.698Z,999.33
2023-01-07T08:33:01.855Z,999.34
2023-01-07T08:34:01.893Z,999.29
2023-01-07T08:35:02.692Z,999.32
2023-01-07T08:36:03.586Z,999.31
2023-01-07T08:37:02.879Z,999.32
2023-01-07T08:38:01.986Z,999.38
2023-01-07T08:39:02.138Z,999.36
2023-01-07T08:40:03.425Z,999.34
2023-01-07T08:41:02.014Z,999.37
2023-01-07T08:42:01.822Z,999.34
2023-01-07T08:43:02.301Z,999.26
2023-01-07T08:44:02.353Z,999.29
2023-01-07T08:45:01.811Z,999.25
2023-01-07T08:46:02.430Z,999.26
2023-01-07T08:47:02.861Z,999.23
2023-01-07T08:48:02.779Z,999.27
2023-01-07T08:49:01.768Z,999.24
2023-01-07T08:50:01.831Z,999.21
2023-01-07T08:51:03.160Z,999.24
2023-01-07T08:52:06.925Z,999.21
2023-01-07T08:53:04.906Z,999.23
2023-01-07T08:54:01.822Z,999.19
2023-01-07T08:55:01.754Z,999.18
2023-01-07T08:56:01.664Z,999.17
2023-01-07T08:57:01.872Z,999.18
2023-01-07T08:58:01.914Z,999.16
2023-01-07T08:59:04.263Z,999.20
2023-01-07T09:00:01.675Z,999.22
2023-01-07T09:01:02.042Z,999.18
2023-01-07T09:02:03.491Z,999.19
2023-01-07T09:03:01.717Z,999.13
2023-01-07T09:04:01.782Z,999.15
2023-01-07T09:05:01.542Z,999.11
2023-01-07T09:06:01.532Z,999.16
2023-01-07T09:07:01.887Z,999.12
2023-01-07T09:08:01.721Z,999.12
2023-01-07T09:09:01.618Z,999.11
2023-01-07T09:10:02.323Z,999.11
2023-01-07T09:11:03.286Z,999.12
2023-01-07T09:12:01.490Z,999.08
2023-01-07T09:13:01.918Z,999.05
2023-01-07T09:14:02.212Z,999.05
2023-01-07T09:15:02.553Z,999.03
2023-01-07T09:16:02.834Z,999.04
2023-01-07T09:17:01.700Z,999.02
2023-01-07T09:18:01.928Z,998.96
2023-01-07T09:19:02.067Z,998.93
2023-01-07T09:20:01.476Z,998.99
2023-01-07T09:21:01.862Z,998.94
2023-01-07T09:22:02.367Z,998.92
2023-01-07T09:23:03.084Z,998.91
2023-01-07T09:24:01.320Z,998.89
2023-01-07T09:25:01.315Z,998.83
2023-01-07T09:26:01.298Z,998.87
2023-01-07T09:27:01.734Z,998.82
2023-01-07T09:28:02.987Z,998.78
2023-01-07T09:29:02.407Z,998.76
2023-01-07T09:30:01.336Z,998.77
2023-01-07T09:31:01.261Z,998.72
2023-01-07T09:32:01.486Z,998.75
2023-01-07T09:33:01.523Z,998.76
2023-01-07T09:34:01.388Z,998.76
2023-01-07T09:35:03.695Z,998.74
2023-01-07T09:36:01.318Z,998.73
2023-01-07T09:37:01.288Z,998.74
2023-01-07T09:38:01.222Z,998.76
2023-01-07T09:39:01.479Z,998.71
2023-01-07T09:40:02.798Z,998.73
2023-01-07T09:41:02.336Z,998.75
2023-01-07T09:42:22.289Z,998.66
2023-01-07T09:43:01.113Z,998.63
2023-01-07T09:44:01.957Z,998.49
2023-01-07T09:45:01.102Z,998.48
2023-01-07T09:46:01.105Z,998.44
2023-01-07T09:47:01.115Z,998.47
2023-01-07T09:48:01.050Z,998.50
2023-01-07T09:49:01.080Z,998.49
2023-01-07T09:50:01.079Z,998.44
2023-01-07T09:51:01.133Z,998.47
2023-01-07T09:52:01.181Z,998.52
2023-01-07T09:53:02.002Z,998.56
2023-01-07T09:54:01.241Z,998.48
2023-01-07T09:55:01.231Z,998.48
2023-01-07T09:56:10.909Z,998.47
2023-01-07T09:57:03.111Z,998.46
2023-01-07T09:58:01.177Z,998.48
2023-01-07T09:59:00.956Z,998.48
2023-01-07T10:00:01.416Z,998.48
2023-01-07T10:01:01.989Z,998.42
2023-01-07T10:02:01.079Z,998.46
2023-01-07T10:03:01.526Z,998.42
2023-01-07T10:04:01.016Z,998.41
2023-01-07T10:05:01.728Z,998.41
2023-01-07T10:06:00.951Z,998.35
2023-01-07T10:07:01.196Z,998.35
2023-01-07T10:08:30.424Z,998.33
2023-01-07T10:09:02.669Z,998.30
2023-01-07T10:10:00.923Z,998.31
2023-01-07T10:11:00.917Z,998.27
2023-01-07T10:12:00.860Z,998.25
2023-01-07T10:13:00.767Z,998.36
2023-01-07T10:14:00.873Z,998.27
2023-01-07T10:15:00.764Z,998.26
2023-01-07T10:16:01.004Z,998.32
2023-01-07T10:17:00.737Z,998.26
2023-01-07T10:18:00.754Z,998.28
2023-01-07T10:19:00.713Z,998.33
2023-01-07T10:20:00.736Z,998.25
2023-01-07T10:21:00.741Z,998.27
2023-01-07T10:22:00.719Z,998.26
2023-01-07T10:23:00.689Z,998.29
2023-01-07T10:24:01.305Z,998.23
2023-01-07T10:25:00.629Z,998.28
2023-01-07T10:26:01.123Z,998.29
2023-01-07T10:27:00.628Z,998.29
2023-01-07T10:28:00.632Z,998.31
2023-01-07T10:29:00.586Z,998.31
2023-01-07T10:30:00.736Z,998.24
2023-01-07T10:31:00.583Z,998.26
2023-01-07T10:32:00.635Z,998.26
2023-01-07T10:33:00.609Z,998.24
2023-01-07T10:34:00.531Z,998.22
2023-01-07T10:35:00.526Z,998.24
2023-01-07T10:36:00.534Z,998.17
2023-01-07T10:37:01.143Z,998.20
2023-01-07T10:38:00.509Z,998.14
2023-01-07T10:39:00.476Z,998.16
2023-01-07T10:40:00.500Z,998.15
2023-01-07T10:41:00.456Z,998.10
2023-01-07T10:42:00.467Z,998.17
2023-01-07T10:43:00.438Z,998.13
2023-01-07T10:44:00.459Z,998.10
2023-01-07T10:45:00.522Z,998.07
2023-01-07T10:46:00.621Z,998.08
2023-01-07T10:47:00.392Z,998.07
2023-01-07T10:48:00.396Z,998.06
2023-01-07T10:49:00.369Z,998.00
2023-01-07T10:50:00.377Z,998.05
2023-01-07T10:51:00.347Z,998.04
2023-01-07T10:52:00.324Z,998.00
2023-01-07T10:53:00.315Z,998.04
2023-01-07T10:54:00.304Z,998.00
2023-01-07T10:55:00.318Z,997.95
2023-01-07T10:56:00.313Z,997.92
2023-01-07T10:57:00.323Z,997.88
2023-01-07T10:58:00.273Z,997.88
2023-01-07T10:59:00.304Z,997.86
2023-01-07T11:00:00.270Z,997.86
2023-01-07T11:01:00.453Z,997.83
2023-01-07T11:02:00.721Z,997.84
2023-01-07T11:03:00.337Z,997.79
2023-01-07T11:04:00.235Z,997.80
2023-01-07T11:05:00.471Z,997.79
2023-01-07T11:06:00.203Z,997.77
2023-01-07T11:07:00.200Z,997.79
2023-01-07T11:08:00.227Z,997.70
2023-01-07T11:09:00.173Z,997.72
2023-01-07T11:10:00.182Z,997.69
2023-01-07T11:11:00.380Z,997.66
2023-01-07T11:12:00.172Z,997.66
2023-01-07T11:13:00.231Z,997.65
2023-01-07T11:14:00.885Z,997.61
2023-01-07T11:15:00.658Z,997.60
2023-01-07T11:16:00.128Z,997.56
2023-01-07T11:17:00.730Z,997.60
2023-01-07T11:18:02.481Z,997.57
2023-01-07T11:19:00.177Z,997.60
2023-01-07T11:20:01.176Z,997.53
2023-01-07T11:21:00.150Z,997.60
2023-01-07T11:22:00.049Z,997.53
2023-01-07T11:23:22.916Z,997.46
2023-01-07T11:24:00.313Z,997.47
2023-01-07T11:25:00.099Z,997.40
2023-01-07T11:26:00.916Z,997.37
2023-01-07T11:27:00.704Z,997.36
2023-01-07T11:27:59.976Z,997.35
2023-01-07T11:29:02.332Z,997.28
2023-01-07T11:30:00.793Z,997.25
2023-01-07T11:30:59.963Z,997.29
2023-01-07T11:32:00.062Z,997.26
2023-01-07T11:32:59.968Z,997.29
2023-01-07T11:34:04.471Z,997.19
2023-01-07T11:35:01.406Z,997.12
2023-01-07T11:35:59.870Z,997.13
2023-01-07T11:36:59.900Z,997.10
2023-01-07T11:37:59.885Z,997.12
2023-01-07T11:38:59.860Z,997.09
2023-01-07T11:40:00.660Z,997.11
2023-01-07T11:41:00.716Z,997.06
2023-01-07T11:41:59.782Z,997.06
2023-01-07T11:42:59.981Z,997.01
2023-01-07T11:43:59.784Z,996.98
2023-01-07T11:45:00.671Z,996.96
2023-01-07T11:46:20.151Z,996.97
2023-01-07T11:47:00.801Z,996.88
2023-01-07T11:47:59.954Z,996.88
2023-01-07T11:49:01.170Z,996.86
2023-01-07T11:49:59.914Z,996.80
2023-01-07T11:51:01.260Z,996.80
2023-01-07T11:52:00.166Z,996.81
2023-01-07T11:52:59.859Z,996.78
2023-01-07T11:53:59.734Z,996.72
2023-01-07T11:54:59.761Z,996.73
2023-01-07T11:55:59.798Z,996.72
2023-01-07T11:56:59.795Z,996.71
2023-01-07T11:58:28.314Z,996.70
2023-01-07T11:59:01.860Z,996.64
2023-01-07T11:59:59.818Z,996.58
2023-01-07T12:00:59.805Z,996.58
2023-01-07T12:01:59.797Z,996.54
2023-01-07T12:02:59.795Z,996.48
2023-01-07T12:03:59.763Z,996.50
2023-01-07T12:04:59.558Z,996.34
2023-01-07T12:06:00.366Z,996.35
2023-01-07T12:06:59.579Z,996.33
2023-01-07T12:07:59.507Z,996.32
2023-01-07T12:08:59.523Z,996.26
2023-01-07T12:09:59.515Z,996.27
2023-01-07T12:10:59.495Z,996.27
2023-01-07T12:11:59.479Z,996.24
2023-01-07T12:12:59.634Z,996.16
2023-01-07T12:13:59.478Z,996.16
2023-01-07T12:14:59.513Z,996.09
2023-01-07T12:16:01.190Z,996.13
2023-01-07T12:17:00.499Z,996.13
2023-01-07T12:18:03.139Z,996.05
2023-01-07T12:19:01.758Z,996.03
2023-01-07T12:19:59.380Z,996.03
2023-01-07T12:21:00.997Z,996.06
2023-01-07T12:22:30.399Z,996.05
2023-01-07T12:23:00.647Z,996.00
2023-01-07T12:23:59.348Z,996.04
2023-01-07T12:24:59.323Z,996.03
2023-01-07T12:25:59.613Z,996.02
2023-01-07T12:27:00.035Z,996.06
2023-01-07T12:27:59.514Z,995.96
2023-01-07T12:28:59.489Z,995.97